Main page
METAR-TAF:

METAR-TAF

Airports :

Colonia Airport

Colonia del Sacramento, Uruguay

latitude: 34-27S, longitude: 057-50W, elevation: 23 m

Current weather observation

The report was made 10 hours and 2 minutes ago, at 22:00 UTC
Wind 4 kt from the North
Temperature 8°C
Humidity 66%
Pressure 1025 hPa
Visibility 10 km or more
no clouds below 1500 m and no cumulonimbus

METAR: SUCA 292200Z 35004KT CAVOK 08/02 Q1025

Time: 05:02 (08:02 UTC)

Forecast

The report was made 2 hours and 32 minutes ago, at 05:30 UTC
Forecast valid from 30 at 06 UTC to 31 at 06 UTC
Wind 10 kt from the North/Northwest
Visibility 10 km or more
no clouds below 1500 m and no cumulonimbus

TAF: SUCA 300530Z 3006/3106 34010KT CAVOK TX13/3018Z TN01/3010Z

Weather observations and forecasts of more than 4000 airports (METAR and TAF reports).

The available stations are represented by yellow and red dots on the map.

Hover mouse over dot to see the name of the station.

Then click to see weather observations and forecasts.

To change the map : click on the green buttons with a black cross to zoom in, on the green button with a dash to zoom out, or on the green arrows for adjacent maps.


METAR-TAF: